Time;durP1;ratioP1;P1;durP2;ratioP2;P2;SDS_P1;SDS_P2;PMS_P1;PMS_P2;Temp;Humidity;BMP_temperature;BMP_pressure;BME280_temperature;BME280_humidity;BME280_pressure;Samples;Min_cycle;Max_cycle;Signal;HPM_P1;HPM_P2
2020/12/29 00:01:41;;;;;;;30.05;27.80;;;4.70;1.00;;;;;;5094115;28;20215;-74
2020/12/29 00:04:17;;;;;;;32.42;30.27;;;4.80;1.00;;;;;;5094342;28;20666;-74
2020/12/29 00:06:51;;;;;;;37.40;35.22;;;4.80;1.00;;;;;;5094246;28;20221;-74
2020/12/29 00:09:18;;;;;;;42.85;39.85;;;4.70;1.00;;;;;;5094366;28;20263;-74
2020/12/29 00:11:45;;;;;;;34.20;31.40;;;4.80;1.00;;;;;;5094063;28;20176;-74
2020/12/29 00:14:12;;;;;;;33.38;30.63;;;4.80;1.00;;;;;;5094178;28;20264;-74
2020/12/29 00:16:37;;;;;;;36.80;34.08;;;4.80;1.00;;;;;;5093870;28;20670;-74
2020/12/29 00:19:05;;;;;;;31.50;29.30;;;4.70;1.00;;;;;;5094311;28;20245;-74
2020/12/29 00:21:30;;;;;;;35.13;32.58;;;4.70;1.00;;;;;;5093769;28;20213;-74
2020/12/29 00:23:56;;;;;;;39.90;36.70;;;4.70;1.00;;;;;;5093752;28;20514;-74
2020/12/29 00:26:25;;;;;;;38.03;34.43;;;4.70;1.00;;;;;;5093489;28;20741;-74
2020/12/29 00:28:51;;;;;;;31.60;29.15;;;4.70;1.00;;;;;;5093609;28;20195;-74
2020/12/29 00:31:20;;;;;;;33.53;31.00;;;4.70;1.00;;;;;;5093436;28;20177;-74
2020/12/29 00:33:48;;;;;;;39.03;36.08;;;4.70;1.00;;;;;;5093607;28;20176;-74
2020/12/29 00:36:14;;;;;;;37.70;34.40;;;4.70;1.00;;;;;;5092154;28;20690;-74
2020/12/29 00:38:39;;;;;;;41.10;38.30;;;4.70;1.00;;;;;;5093361;28;20190;-74
2020/12/29 00:41:07;;;;;;;41.50;38.47;;;4.60;1.00;;;;;;5093537;28;20181;-74
2020/12/29 00:43:33;;;;;;;39.70;36.55;;;4.60;1.00;;;;;;5093911;28;20164;-74
2020/12/29 00:46:01;;;;;;;36.80;33.90;;;4.60;1.00;;;;;;5093958;28;20183;-74
2020/12/29 00:48:27;;;;;;;42.97;39.63;;;4.70;1.00;;;;;;5093256;28;20189;-74
2020/12/29 00:50:52;;;;;;;46.17;42.70;;;4.70;1.00;;;;;;5093394;28;20195;-74
2020/12/29 00:53:18;;;;;;;41.80;38.73;;;4.70;1.00;;;;;;5092534;28;20173;-74
2020/12/29 00:55:43;;;;;;;46.10;42.93;;;4.70;1.00;;;;;;5092285;28;20196;-74
2020/12/29 00:58:09;;;;;;;37.97;34.93;;;4.70;1.00;;;;;;5093114;28;20529;-74
2020/12/29 01:00:34;;;;;;;40.73;37.70;;;4.70;1.00;;;;;;5093761;28;20572;-74
2020/12/29 01:03:00;;;;;;;42.90;39.53;;;4.60;1.00;;;;;;5093910;28;20191;-74
2020/12/29 01:05:26;;;;;;;45.40;41.93;;;4.60;1.00;;;;;;5093565;28;20164;-74
2020/12/29 01:07:51;;;;;;;40.17;36.80;;;4.50;1.00;;;;;;5093383;28;20218;-74
2020/12/29 01:10:17;;;;;;;46.07;42.50;;;4.50;1.00;;;;;;5093493;28;20615;-74
2020/12/29 01:12:43;;;;;;;43.63;39.97;;;4.40;1.00;;;;;;5093262;28;20503;-74
2020/12/29 01:15:08;;;;;;;39.88;36.72;;;4.30;1.00;;;;;;5093619;28;20188;-74
2020/12/29 01:17:34;;;;;;;48.03;44.33;;;4.30;1.00;;;;;;5093137;28;20199;-74
2020/12/29 01:19:59;;;;;;;49.47;45.83;;;4.40;1.00;;;;;;5092659;28;20197;-74
2020/12/29 01:22:25;;;;;;;45.97;42.40;;;4.40;1.00;;;;;;5093127;28;20583;-74
2020/12/29 01:24:50;;;;;;;46.83;43.23;;;4.40;1.00;;;;;;5093664;28;20530;-74
2020/12/29 01:27:16;;;;;;;47.67;43.97;;;4.40;1.00;;;;;;5092921;28;20280;-74
2020/12/29 01:29:42;;;;;;;43.47;39.63;;;4.40;1.00;;;;;;5093072;28;20172;-74
2020/12/29 01:32:07;;;;;;;48.20;44.13;;;4.50;1.00;;;;;;5093673;28;20180;-74
2020/12/29 01:34:33;;;;;;;41.47;37.83;;;4.50;1.00;;;;;;5092036;28;20241;-73
2020/12/29 01:36:58;;;;;;;45.73;41.83;;;4.50;1.00;;;;;;5092460;28;20225;-74
2020/12/29 01:39:24;;;;;;;40.20;36.90;;;4.60;1.00;;;;;;5093004;28;20169;-74
2020/12/29 01:41:49;;;;;;;43.73;39.53;;;4.50;1.00;;;;;;5093106;28;20649;-74
2020/12/29 01:44:17;;;;;;;48.93;45.13;;;4.50;1.00;;;;;;5096643;28;20204;-74
2020/12/29 01:46:44;;;;;;;44.08;40.03;;;4.50;1.00;;;;;;5096632;28;20164;-74
2020/12/29 01:49:11;;;;;;;43.58;39.85;;;4.50;1.00;;;;;;5097213;28;20168;-73
2020/12/29 01:51:38;;;;;;;45.05;41.53;;;4.50;1.00;;;;;;5096518;28;20188;-74
2020/12/29 01:54:05;;;;;;;55.78;51.30;;;4.40;1.00;;;;;;5096466;28;20169;-74
2020/12/29 01:56:36;;;;;;;54.28;50.53;;;4.40;1.00;;;;;;5094940;28;20206;-74
2020/12/29 01:59:09;;;;;;;50.70;46.13;;;4.50;1.00;;;;;;5096986;28;20184;-74
2020/12/29 02:01:42;;;;;;;46.03;42.55;;;4.50;1.00;;;;;;5096512;28;20199;-74
2020/12/29 02:04:09;;;;;;;51.50;47.15;;;4.50;1.00;;;;;;5096581;28;20417;-74
2020/12/29 02:06:35;;;;;;;41.67;37.97;;;4.50;1.00;;;;;;5096655;28;20168;-74
2020/12/29 02:09:03;;;;;;;43.20;39.50;;;4.60;1.00;;;;;;5096079;28;20198;-74
2020/12/29 02:11:28;;;;;;;42.75;38.70;;;4.60;1.00;;;;;;5096126;28;20187;-74
2020/12/29 02:13:54;;;;;;;44.77;41.07;;;4.60;1.00;;;;;;5096778;28;20176;-74
2020/12/29 02:16:19;;;;;;;48.93;45.03;;;4.60;1.00;;;;;;5096675;28;20188;-73
2020/12/29 02:18:45;;;;;;;48.97;44.90;;;4.60;1.00;;;;;;5095732;28;20658;-74
2020/12/29 02:21:11;;;;;;;48.53;44.37;;;4.60;1.00;;;;;;5095952;28;20165;-74
2020/12/29 02:23:36;;;;;;;42.73;39.50;;;4.60;1.00;;;;;;5096251;28;20509;-74
2020/12/29 02:26:02;;;;;;;51.50;47.40;;;4.60;1.00;;;;;;5096302;28;20169;-74
2020/12/29 02:28:28;;;;;;;50.72;46.97;;;4.60;1.00;;;;;;5095595;28;20192;-74
2020/12/29 02:30:54;;;;;;;45.93;42.10;;;4.70;1.00;;;;;;5095968;28;20229;-74
2020/12/29 02:33:19;;;;;;;48.53;44.60;;;4.60;1.00;;;;;;5095735;28;20185;-74
2020/12/29 02:35:45;;;;;;;50.50;46.60;;;4.60;1.00;;;;;;5095715;28;20200;-74
2020/12/29 02:38:10;;;;;;;49.53;45.53;;;4.60;1.00;;;;;;5095779;28;20601;-73
2020/12/29 02:40:36;;;;;;;52.03;47.97;;;4.50;1.00;;;;;;5095804;28;20169;-74
2020/12/29 02:43:02;;;;;;;47.73;43.33;;;4.50;1.00;;;;;;5095774;28;20294;-74
2020/12/29 02:45:28;;;;;;;42.72;39.03;;;4.60;1.00;;;;;;5096191;28;20177;-74
2020/12/29 02:47:53;;;;;;;43.00;38.90;;;4.60;1.00;;;;;;5095490;28;20537;-74
2020/12/29 02:50:19;;;;;;;46.27;42.10;;;4.60;1.00;;;;;;5095369;28;20168;-74
2020/12/29 02:52:45;;;;;;;40.33;36.00;;;4.70;1.00;;;;;;5095298;28;20179;-74
2020/12/29 02:55:11;;;;;;;49.13;44.77;;;4.70;1.00;;;;;;5095168;28;20202;-74
2020/12/29 02:57:37;;;;;;;47.08;42.92;;;4.70;1.00;;;;;;5094976;28;20219;-74
2020/12/29 03:02:37;;;;;;;48.53;44.05;;;4.50;1.00;;;;;;5890073;22;20252;-74
2020/12/29 03:05:03;;;;;;;40.30;36.30;;;4.60;1.00;;;;;;5032342;28;20248;-74
2020/12/29 03:07:29;;;;;;;44.47;40.57;;;4.60;1.00;;;;;;5035014;28;20209;-74
2020/12/29 03:09:54;;;;;;;42.33;38.20;;;4.60;1.00;;;;;;5034252;28;20196;-74
2020/12/29 03:12:20;;;;;;;48.43;43.83;;;4.70;1.00;;;;;;5037477;28;20193;-73
2020/12/29 03:14:45;;;;;;;46.97;42.47;;;4.70;1.00;;;;;;5054664;28;20197;-74
2020/12/29 03:17:11;;;;;;;51.93;47.90;;;4.70;1.00;;;;;;5054756;28;20177;-73
2020/12/29 03:19:36;;;;;;;51.53;47.23;;;4.50;1.00;;;;;;5054906;28;20256;-74
2020/12/29 03:22:02;;;;;;;43.87;40.13;;;4.50;1.00;;;;;;5053718;28;20242;-74
2020/12/29 03:24:28;;;;;;;43.53;39.03;;;4.50;1.00;;;;;;5053194;28;20170;-73
2020/12/29 03:26:54;;;;;;;46.27;41.67;;;4.60;1.00;;;;;;5054788;28;20165;-74
2020/12/29 03:29:19;;;;;;;43.20;38.87;;;4.60;1.00;;;;;;5053430;28;20192;-74
2020/12/29 03:31:45;;;;;;;45.23;41.23;;;4.60;1.00;;;;;;5053913;28;20577;-74
2020/12/29 03:34:23;;;;;;;48.97;44.30;;;4.70;1.00;;;;;;5052808;28;20262;-73
2020/12/29 03:36:50;;;;;;;44.58;40.30;;;4.70;1.00;;;;;;5054240;28;20364;-73
2020/12/29 03:39:16;;;;;;;43.65;39.78;;;4.70;1.00;;;;;;5054355;28;20189;-73
2020/12/29 03:41:42;;;;;;;46.08;41.90;;;4.60;1.00;;;;;;5052548;28;20173;-74
2020/12/29 03:44:07;;;;;;;50.80;46.30;;;4.60;1.00;;;;;;5053054;28;20194;-74
2020/12/29 03:46:33;;;;;;;56.37;51.80;;;4.60;1.00;;;;;;5052016;28;20170;-74
2020/12/29 03:48:59;;;;;;;56.87;52.07;;;4.60;1.00;;;;;;5053103;28;20201;-74
2020/12/29 03:51:24;;;;;;;46.57;42.20;;;4.70;1.00;;;;;;5053915;28;20530;-74
2020/12/29 03:53:50;;;;;;;47.33;43.27;;;4.70;1.00;;;;;;5053474;28;20201;-73
2020/12/29 03:56:15;;;;;;;48.47;44.23;;;4.70;1.00;;;;;;5052629;28;20198;-74
2020/12/29 03:58:42;;;;;;;48.43;43.93;;;4.80;1.00;;;;;;5054139;28;20166;-73
2020/12/29 04:01:07;;;;;;;43.92;39.72;;;4.70;1.00;;;;;;5051589;28;20178;-74
2020/12/29 04:03:33;;;;;;;49.17;44.87;;;4.70;1.00;;;;;;5052393;28;20740;-74
2020/12/29 04:05:59;;;;;;;47.63;42.90;;;4.80;1.00;;;;;;5053288;28;20196;-73
2020/12/29 04:08:24;;;;;;;47.93;43.50;;;4.80;1.00;;;;;;5052537;28;20185;-74
2020/12/29 04:10:50;;;;;;;49.50;44.60;;;4.80;1.00;;;;;;5053592;28;20227;-74
2020/12/29 04:13:15;;;;;;;49.37;45.30;;;4.70;1.00;;;;;;5052472;28;20194;-75
2020/12/29 04:15:42;;;;;;;43.93;40.00;;;4.70;1.00;;;;;;5053337;28;20193;-74
2020/12/29 04:18:07;;;;;;;55.00;49.80;;;4.60;1.00;;;;;;5052271;28;20169;-74
2020/12/29 04:20:33;;;;;;;43.23;38.53;;;4.60;1.00;;;;;;5053265;28;20174;-74
2020/12/29 04:22:58;;;;;;;46.17;42.10;;;4.70;1.00;;;;;;5052510;28;20197;-74
2020/12/29 04:25:24;;;;;;;46.67;42.23;;;4.70;1.00;;;;;;5053058;28;20745;-74
2020/12/29 04:27:49;;;;;;;45.57;42.00;;;4.60;1.00;;;;;;5053394;28;20174;-73
2020/12/29 04:30:15;;;;;;;38.60;34.90;;;4.70;1.00;;;;;;5051853;28;20178;-74
2020/12/29 04:32:41;;;;;;;51.63;46.87;;;4.70;1.00;;;;;;5051487;28;20196;-74
2020/12/29 04:35:08;;;;;;;47.37;43.43;;;4.70;1.00;;;;;;5051225;28;20197;-74
2020/12/29 04:37:34;;;;;;;50.33;45.70;;;4.80;1.00;;;;;;5051844;28;20169;-74
2020/12/29 04:40:00;;;;;;;47.88;43.78;;;4.80;1.00;;;;;;5052017;28;20221;-74
2020/12/29 04:42:27;;;;;;;54.90;50.10;;;4.80;1.00;;;;;;5052794;28;20194;-74
2020/12/29 04:44:52;;;;;;;45.92;41.90;;;4.80;1.00;;;;;;5052318;28;20166;-74
2020/12/29 04:47:18;;;;;;;46.53;42.50;;;4.80;1.00;;;;;;5053119;28;20208;-73
2020/12/29 04:49:45;;;;;;;44.97;40.70;;;4.80;1.00;;;;;;5053172;28;20231;-74
2020/12/29 04:52:11;;;;;;;47.25;43.13;;;4.80;1.00;;;;;;5051378;28;20429;-74
2020/12/29 04:54:39;;;;;;;45.95;41.17;;;4.80;1.00;;;;;;5050849;28;20181;-74
2020/12/29 04:57:06;;;;;;;49.13;44.38;;;4.80;1.00;;;;;;5053074;28;20215;-74
2020/12/29 04:59:33;;;;;;;47.40;43.35;;;4.80;1.00;;;;;;5052268;28;20178;-73
2020/12/29 05:01:59;;;;;;;45.38;41.58;;;4.80;1.00;;;;;;5052631;28;20581;-74
2020/12/29 05:04:25;;;;;;;49.25;45.08;;;4.80;1.00;;;;;;5050790;28;20567;-74
2020/12/29 05:06:52;;;;;;;45.93;41.67;;;4.80;1.00;;;;;;5053052;28;20247;-74
2020/12/29 05:09:21;;;;;;;43.17;39.58;;;4.70;1.00;;;;;;5052605;28;20170;-74
2020/12/29 05:11:47;;;;;;;40.00;35.80;;;4.70;1.00;;;;;;5051092;28;20208;-74
2020/12/29 05:14:13;;;;;;;45.20;40.97;;;4.60;1.00;;;;;;5050621;28;20240;-75
2020/12/29 05:16:40;;;;;;;47.10;42.60;;;4.60;1.00;;;;;;5052981;28;20206;-74
2020/12/29 05:19:07;;;;;;;49.05;45.08;;;4.60;1.00;;;;;;5055507;28;20905;-73
2020/12/29 05:21:34;;;;;;;44.65;40.33;;;4.50;1.00;;;;;;5055227;28;20178;-74
2020/12/29 05:24:16;;;;;;;42.33;38.42;;;4.40;1.00;;;;;;5055495;28;20200;-74
2020/12/29 05:26:44;;;;;;;49.67;45.40;;;4.40;1.00;;;;;;5056639;28;20174;-73
2020/12/29 05:29:11;;;;;;;49.38;44.85;;;4.30;1.00;;;;;;5055209;28;20189;-74
2020/12/29 05:31:38;;;;;;;46.53;42.33;;;4.30;1.00;;;;;;5056656;28;20162;-74
2020/12/29 05:34:05;;;;;;;41.58;37.15;;;4.30;1.00;;;;;;5055304;28;20201;-74
2020/12/29 05:36:36;;;;;;;42.47;38.50;;;4.30;1.00;;;;;;5056774;28;20567;-73
2020/12/29 05:39:09;;;;;;;47.78;43.45;;;4.20;1.00;;;;;;5055035;28;20177;-74
2020/12/29 05:41:46;;;;;;;41.88;38.38;;;4.10;1.00;;;;;;5054989;28;20159;-73
2020/12/29 05:44:32;;;;;;;42.83;38.17;;;4.00;1.00;;;;;;5055532;28;20189;-74
2020/12/29 05:47:00;;;;;;;40.42;36.92;;;4.00;1.00;;;;;;5056243;28;20174;-74
2020/12/29 05:49:27;;;;;;;47.20;43.30;;;4.00;1.00;;;;;;5054969;28;20181;-73
2020/12/29 05:51:55;;;;;;;48.05;44.28;;;3.90;1.00;;;;;;5054577;28;20701;-74
2020/12/29 05:54:22;;;;;;;47.33;42.92;;;3.90;1.00;;;;;;5055182;28;20241;-74
2020/12/29 05:56:49;;;;;;;43.75;39.85;;;3.90;1.00;;;;;;5054767;28;20201;-74
2020/12/29 05:59:16;;;;;;;43.38;39.33;;;3.80;1.00;;;;;;5056039;28;20158;-74
2020/12/29 06:01:53;;;;;;;40.83;36.78;;;3.80;1.00;;;;;;5056065;28;20177;-74
2020/12/29 06:04:20;;;;;;;48.28;43.95;;;3.80;1.00;;;;;;5054711;28;20213;-74
2020/12/29 06:06:47;;;;;;;42.22;38.72;;;3.80;1.00;;;;;;5056308;28;20174;-74
2020/12/29 06:09:17;;;;;;;44.85;41.13;;;3.70;1.00;;;;;;5056081;28;20170;-73
2020/12/29 06:11:49;;;;;;;43.05;39.17;;;3.70;1.00;;;;;;5055854;28;20174;-74
2020/12/29 06:14:25;;;;;;;43.75;39.97;;;3.60;1.00;;;;;;5054794;28;20190;-74
2020/12/29 06:16:55;;;;;;;42.03;38.13;;;3.60;1.00;;;;;;5055576;28;20208;-73
2020/12/29 06:19:29;;;;;;;44.92;41.13;;;3.50;1.00;;;;;;5056044;28;20165;-74
2020/12/29 06:22:11;;;;;;;43.47;39.70;;;3.40;1.00;;;;;;5055278;28;20177;-74
2020/12/29 06:24:43;;;;;;;45.15;41.25;;;3.40;1.00;;;;;;5055487;28;20190;-74
2020/12/29 06:27:11;;;;;;;44.17;40.50;;;3.30;1.00;;;;;;5055670;28;20156;-74
2020/12/29 06:29:39;;;;;;;51.25;47.03;;;3.30;1.00;;;;;;5055230;28;20166;-74
2020/12/29 06:32:21;;;;;;;38.60;35.50;;;3.30;1.00;;;;;;5055169;28;20201;-74
2020/12/29 06:34:48;;;;;;;48.70;44.88;;;3.20;1.00;;;;;;5054822;28;20254;-74
2020/12/29 06:37:38;;;;;;;42.95;39.50;;;3.20;1.00;;;;;;5055503;28;20170;-74
2020/12/29 06:40:06;;;;;;;50.72;46.95;;;3.20;1.00;;;;;;5054073;28;20631;-73
2020/12/29 06:42:37;;;;;;;47.33;42.90;;;3.20;1.00;;;;;;5054703;28;20178;-74
2020/12/29 06:45:06;;;;;;;75.85;64.85;;;3.30;1.00;;;;;;5054311;28;20181;-74
2020/12/29 06:47:31;;;;;;;71.90;63.90;;;3.30;1.00;;;;;;5055206;28;20166;-74
2020/12/29 06:49:57;;;;;;;67.53;60.03;;;3.30;1.00;;;;;;5055251;28;20248;-74
2020/12/29 06:52:26;;;;;;;66.97;60.20;;;3.30;1.00;;;;;;5054411;28;20511;-74
2020/12/29 06:55:01;;;;;;;56.22;50.55;;;3.40;1.00;;;;;;5052789;28;20532;-74
2020/12/29 06:57:35;;;;;;;50.70;45.70;;;3.50;1.00;;;;;;5054892;28;20170;-74
2020/12/29 07:00:24;;;;;;;47.60;43.22;;;3.50;1.00;;;;;;5054964;28;20235;-74
2020/12/29 07:02:53;;;;;;;44.00;40.30;;;3.60;1.00;;;;;;5054437;28;20658;-74
2020/12/29 07:05:27;;;;;;;46.25;42.08;;;3.60;1.00;;;;;;5053868;28;20229;-74
2020/12/29 07:08:00;;;;;;;41.20;37.65;;;3.60;1.00;;;;;;5054867;28;20158;-74
2020/12/29 07:10:41;;;;;;;43.90;40.00;;;3.60;1.00;;;;;;5053433;28;20201;-73
2020/12/29 07:13:20;;;;;;;48.22;44.75;;;3.60;1.00;;;;;;5052588;28;20200;-74
2020/12/29 07:15:56;;;;;;;49.30;45.45;;;3.60;1.00;;;;;;5052882;28;20201;-74
2020/12/29 07:18:27;;;;;;;56.03;51.80;;;3.60;1.00;;;;;;5053467;28;20169;-74
2020/12/29 07:20:57;;;;;;;48.00;44.20;;;3.50;1.00;;;;;;5053616;28;20173;-73
2020/12/29 07:23:27;;;;;;;50.13;46.47;;;3.50;1.00;;;;;;5053720;28;20186;-73
2020/12/29 07:25:56;;;;;;;46.38;42.72;;;3.40;1.00;;;;;;5054225;28;20615;-74
2020/12/29 07:28:29;;;;;;;50.55;46.65;;;3.30;1.00;;;;;;5054452;28;20181;-73
2020/12/29 07:30:56;;;;;;;42.60;39.30;;;3.30;1.00;;;;;;5053109;28;20507;-73
2020/12/29 07:33:26;;;;;;;51.47;47.97;;;3.20;1.00;;;;;;5053186;28;20239;-74
2020/12/29 07:35:52;;;;;;;46.92;42.95;;;3.20;1.00;;;;;;5053293;28;20189;-74
2020/12/29 07:38:26;;;;;;;50.53;46.83;;;3.10;1.00;;;;;;5053166;28;20235;-74
2020/12/29 07:40:53;;;;;;;48.20;43.95;;;3.10;1.00;;;;;;5053397;28;20233;-74
2020/12/29 07:43:19;;;;;;;57.95;53.75;;;3.10;1.00;;;;;;5053160;28;20268;-74
2020/12/29 07:45:45;;;;;;;52.58;48.63;;;3.00;1.00;;;;;;5053665;28;20173;-74
2020/12/29 07:48:10;;;;;;;54.90;50.50;;;3.00;1.00;;;;;;5054302;28;20170;-74
2020/12/29 07:50:38;;;;;;;54.93;51.37;;;2.90;1.00;;;;;;5053776;28;20173;-74
2020/12/29 07:53:06;;;;;;;58.17;54.05;;;3.00;1.00;;;;;;5053350;28;20944;-74
2020/12/29 07:55:33;;;;;;;53.58;49.20;;;3.00;1.00;;;;;;5053182;28;20198;-74
2020/12/29 07:58:06;;;;;;;53.50;49.22;;;3.10;1.00;;;;;;5052573;28;20215;-73
2020/12/29 08:00:33;;;;;;;50.35;46.33;;;3.10;1.00;;;;;;5053587;28;20240;-73
2020/12/29 08:02:59;;;;;;;53.88;50.25;;;3.10;1.00;;;;;;5053162;28;20277;-74
2020/12/29 08:05:26;;;;;;;49.53;45.60;;;3.20;1.00;;;;;;5052972;28;20639;-74
2020/12/29 08:07:52;;;;;;;46.13;42.22;;;3.20;1.00;;;;;;5053441;28;20166;-74
2020/12/29 08:10:41;;;;;;;61.92;57.63;;;3.30;1.00;;;;;;5052337;28;20174;-74
2020/12/29 08:13:09;;;;;;;55.53;51.40;;;3.40;1.00;;;;;;5051828;28;20217;-74
2020/12/29 08:15:40;;;;;;;60.85;56.72;;;3.40;1.00;;;;;;5051641;28;20212;-74
2020/12/29 08:18:09;;;;;;;50.67;46.78;;;3.40;1.00;;;;;;5052268;28;20213;-73
2020/12/29 08:20:40;;;;;;;44.42;40.78;;;3.50;1.00;;;;;;5052093;28;20166;-74
2020/12/29 08:23:06;;;;;;;45.08;41.17;;;3.60;1.00;;;;;;5052973;28;20189;-74
2020/12/29 08:25:32;;;;;;;53.20;48.70;;;3.70;1.00;;;;;;5051361;28;20173;-74
2020/12/29 08:28:00;;;;;;;45.00;40.67;;;3.70;1.00;;;;;;5053760;28;20172;-74
2020/12/29 08:30:26;;;;;;;42.83;38.90;;;3.70;1.00;;;;;;5053824;28;20174;-73
2020/12/29 08:32:54;;;;;;;51.78;47.08;;;3.80;1.00;;;;;;5051662;28;20204;-74
2020/12/29 08:35:20;;;;;;;46.00;42.05;;;3.80;1.00;;;;;;5052514;28;20201;-74
2020/12/29 08:38:02;;;;;;;49.25;45.22;;;3.80;1.00;;;;;;5052044;28;20251;-74
2020/12/29 08:40:30;;;;;;;46.92;42.65;;;3.80;1.00;;;;;;5052488;28;20169;-74
2020/12/29 08:42:59;;;;;;;56.90;52.20;;;3.80;1.00;;;;;;5051776;28;20552;-74
2020/12/29 08:45:27;;;;;;;45.30;41.40;;;3.90;1.00;;;;;;5052200;28;20177;-74
2020/12/29 08:47:57;;;;;;;48.17;44.30;;;3.90;1.00;;;;;;5053291;28;20169;-74
2020/12/29 08:50:31;;;;;;;48.58;44.97;;;3.90;1.00;;;;;;5053542;28;20198;-74
2020/12/29 08:53:07;;;;;;;49.90;46.00;;;3.90;1.00;;;;;;5056591;28;20223;-74
2020/12/29 08:55:35;;;;;;;46.63;42.90;;;4.00;1.00;;;;;;5056708;28;20638;-74
2020/12/29 08:58:01;;;;;;;52.58;48.72;;;4.10;1.00;;;;;;5057327;28;20170;-74
2020/12/29 09:00:29;;;;;;;48.53;45.07;;;4.10;1.00;;;;;;5052865;28;20167;-75
2020/12/29 09:02:55;;;;;;;48.95;45.13;;;4.10;1.00;;;;;;5048633;28;20489;-74
2020/12/29 09:05:30;;;;;;;55.28;51.35;;;4.10;1.00;;;;;;5047070;28;20182;-74
2020/12/29 09:07:56;;;;;;;41.40;38.00;;;4.10;1.00;;;;;;5045636;28;20685;-74
2020/12/29 09:10:22;;;;;;;38.10;34.90;;;4.10;1.00;;;;;;5048263;28;20185;-74
2020/12/29 09:12:49;;;;;;;47.25;43.72;;;4.10;1.00;;;;;;5044611;28;20428;-74
2020/12/29 09:15:31;;;;;;;50.63;46.88;;;4.10;1.00;;;;;;5047401;28;20266;-75
2020/12/29 09:17:59;;;;;;;44.78;41.22;;;4.10;1.00;;;;;;5046241;28;20257;-74
2020/12/29 09:20:26;;;;;;;43.58;40.10;;;4.10;1.00;;;;;;5044741;28;20162;-74
2020/12/29 09:22:55;;;;;;;56.67;53.08;;;4.20;1.00;;;;;;5044127;28;20613;-73
2020/12/29 09:25:44;;;;;;;46.00;42.80;;;4.20;1.00;;;;;;5043348;28;20235;-74
2020/12/29 09:28:17;;;;;;;42.70;39.30;;;4.30;1.00;;;;;;5035463;28;20208;-73
2020/12/29 09:31:07;;;;;;;39.75;36.40;;;4.30;1.00;;;;;;5036846;28;20158;-74
2020/12/29 09:33:35;;;;;;;40.70;37.47;;;4.40;1.00;;;;;;5034737;28;20687;-74
2020/12/29 09:36:04;;;;;;;41.75;37.70;;;4.40;1.00;;;;;;5035337;28;20237;-74
2020/12/29 09:38:31;;;;;;;40.88;37.42;;;4.50;1.00;;;;;;5035304;28;20640;-74
2020/12/29 09:40:58;;;;;;;48.15;44.55;;;4.40;1.00;;;;;;5036617;28;20179;-74
2020/12/29 09:43:24;;;;;;;43.00;39.72;;;4.50;1.00;;;;;;5034908;28;20186;-73
2020/12/29 09:45:50;;;;;;;50.80;47.07;;;4.40;1.00;;;;;;5035374;28;20648;-74
2020/12/29 09:48:17;;;;;;;56.15;52.47;;;4.40;1.00;;;;;;5035187;28;20200;-74
2020/12/29 09:50:43;;;;;;;49.42;46.13;;;4.40;1.00;;;;;;5036644;28;20659;-74
2020/12/29 09:53:08;;;;;;;49.20;45.70;;;4.40;1.00;;;;;;5035833;28;20194;-73
2020/12/29 09:55:34;;;;;;;49.97;46.77;;;4.40;1.00;;;;;;5036550;28;20201;-74
2020/12/29 09:58:00;;;;;;;48.75;45.50;;;4.50;1.00;;;;;;5036708;28;20167;-73
2020/12/29 10:00:26;;;;;;;43.97;40.73;;;4.40;1.00;;;;;;5036259;28;20524;-74
2020/12/29 10:02:52;;;;;;;52.23;48.50;;;4.40;1.00;;;;;;5033622;28;20187;-74
2020/12/29 10:05:18;;;;;;;45.57;42.47;;;4.30;1.00;;;;;;5036416;28;20171;-74
2020/12/29 10:07:47;;;;;;;47.63;44.27;;;4.40;1.00;;;;;;5036064;28;20420;-74
2020/12/29 10:10:13;;;;;;;45.72;42.47;;;4.30;1.00;;;;;;5036172;28;20409;-74
2020/12/29 10:12:38;;;;;;;46.38;43.10;;;4.40;1.00;;;;;;5035856;28;20532;-74
2020/12/29 10:15:09;;;;;;;42.13;39.33;;;4.40;1.00;;;;;;5036085;28;20194;-74
2020/12/29 10:17:35;;;;;;;45.22;42.15;;;4.50;1.00;;;;;;5034577;28;20163;-74
2020/12/29 10:20:01;;;;;;;38.90;36.00;;;4.40;1.00;;;;;;5035826;28;20171;-74
2020/12/29 10:22:26;;;;;;;55.07;51.53;;;4.50;1.00;;;;;;5035596;28;20915;-74
2020/12/29 10:24:52;;;;;;;49.27;46.10;;;4.50;1.00;;;;;;5034556;28;20663;-75
2020/12/29 10:27:18;;;;;;;53.70;50.50;;;4.60;1.00;;;;;;5034440;28;20409;-73
2020/12/29 10:29:44;;;;;;;46.80;43.60;;;4.60;1.00;;;;;;5035444;28;20444;-73
2020/12/29 10:32:09;;;;;;;41.90;38.80;;;4.60;1.00;;;;;;5035346;28;20206;-74
2020/12/29 10:34:35;;;;;;;41.73;38.77;;;4.50;1.00;;;;;;5034319;28;20220;-74
2020/12/29 10:37:00;;;;;;;41.87;38.97;;;4.60;1.00;;;;;;5035427;28;20229;-74
2020/12/29 10:39:26;;;;;;;48.27;44.80;;;4.60;1.00;;;;;;5035310;28;20501;-73
2020/12/29 10:41:52;;;;;;;42.47;39.47;;;4.60;1.00;;;;;;5034177;28;20244;-74
2020/12/29 10:44:17;;;;;;;39.83;37.13;;;4.60;1.00;;;;;;5033853;28;20195;-75
2020/12/29 10:46:47;;;;;;;43.70;40.70;;;4.60;1.00;;;;;;5034767;28;20179;-73
2020/12/29 10:49:14;;;;;;;38.08;34.95;;;4.60;1.00;;;;;;5035315;28;20167;-74
2020/12/29 10:51:40;;;;;;;43.47;40.20;;;4.50;1.00;;;;;;5035881;28;20178;-74
2020/12/29 10:54:05;;;;;;;52.57;48.63;;;4.60;1.00;;;;;;5035390;28;20198;-74
2020/12/29 10:56:31;;;;;;;50.40;46.90;;;4.50;1.00;;;;;;5035171;28;20252;-73
2020/12/29 10:58:57;;;;;;;43.07;39.67;;;4.50;1.00;;;;;;5039525;28;20424;-73
2020/12/29 11:01:23;;;;;;;46.93;43.50;;;4.60;1.00;;;;;;5053834;28;20179;-73
2020/12/29 11:03:51;;;;;;;52.42;48.47;;;4.70;1.00;;;;;;5053527;28;20224;-74
2020/12/29 11:06:21;;;;;;;41.83;38.60;;;4.80;1.00;;;;;;5053871;28;20192;-74
2020/12/29 11:08:51;;;;;;;45.40;41.63;;;4.80;1.00;;;;;;5054006;28;20195;-74
2020/12/29 11:11:18;;;;;;;42.55;39.15;;;4.80;1.00;;;;;;5052417;28;20571;-74
2020/12/29 11:13:45;;;;;;;45.78;41.45;;;4.90;1.00;;;;;;5053145;28;20200;-74
2020/12/29 11:16:14;;;;;;;49.38;45.45;;;5.00;1.00;;;;;;5051281;28;20297;-74
2020/12/29 11:18:40;;;;;;;51.30;47.40;;;5.00;1.00;;;;;;5053705;28;20174;-74
2020/12/29 11:21:06;;;;;;;42.00;38.50;;;5.00;1.00;;;;;;5052085;28;20697;-74
2020/12/29 11:23:32;;;;;;;36.87;33.33;;;5.10;1.00;;;;;;5052060;28;20194;-74
2020/12/29 11:25:58;;;;;;;50.70;47.20;;;5.10;1.00;;;;;;5053442;28;20674;-74
2020/12/29 11:28:24;;;;;;;42.30;38.90;;;5.10;1.00;;;;;;5051816;28;20186;-74
2020/12/29 11:30:50;;;;;;;48.67;45.28;;;5.10;1.00;;;;;;5052191;28;20178;-74
2020/12/29 11:33:15;;;;;;;39.47;36.27;;;5.10;1.00;;;;;;5053136;28;20194;-76
2020/12/29 11:35:44;;;;;;;47.40;43.90;;;5.20;1.00;;;;;;5053351;28;20198;-74
2020/12/29 11:38:09;;;;;;;51.15;47.78;;;5.10;1.00;;;;;;5053375;28;20216;-74
2020/12/29 11:40:35;;;;;;;66.97;62.07;;;5.10;1.00;;;;;;5053090;28;20701;-74
2020/12/29 11:43:01;;;;;;;48.87;45.67;;;5.20;1.00;;;;;;5051640;28;20264;-75
2020/12/29 11:45:27;;;;;;;56.65;53.25;;;5.20;1.00;;;;;;5052046;28;20323;-75
2020/12/29 11:47:53;;;;;;;50.93;47.63;;;5.40;1.00;;;;;;5051816;28;20265;-74
2020/12/29 11:50:18;;;;;;;49.50;45.87;;;5.30;1.00;;;;;;5052844;28;20407;-75
2020/12/29 11:52:44;;;;;;;50.33;46.97;;;5.30;1.00;;;;;;5052713;28;20166;-74
2020/12/29 11:55:10;;;;;;;54.20;50.87;;;5.30;1.00;;;;;;5052103;28;20205;-74
2020/12/29 11:57:36;;;;;;;59.50;55.90;;;5.30;1.00;;;;;;5052651;28;20170;-74
2020/12/29 12:00:05;;;;;;;49.60;46.33;;;5.30;1.00;;;;;;5051808;28;20420;-74
2020/12/29 12:02:31;;;;;;;45.58;41.85;;;5.30;1.00;;;;;;5052455;28;20174;-74
2020/12/29 12:04:56;;;;;;;47.43;44.40;;;5.30;1.00;;;;;;5052475;28;20260;-74
2020/12/29 12:07:22;;;;;;;42.67;39.47;;;5.40;1.00;;;;;;5051192;28;20189;-75
2020/12/29 12:09:47;;;;;;;43.20;39.97;;;5.40;1.00;;;;;;5051139;28;20290;-74
2020/12/29 12:12:13;;;;;;;47.37;44.07;;;5.50;1.00;;;;;;5052026;28;20166;-74
2020/12/29 12:14:39;;;;;;;50.23;46.43;;;5.40;1.00;;;;;;5052386;28;20201;-74
2020/12/29 12:17:04;;;;;;;48.80;45.30;;;5.40;1.00;;;;;;5052081;28;20209;-74
2020/12/29 12:19:31;;;;;;;46.60;42.87;;;5.40;1.00;;;;;;5052306;28;20170;-75
2020/12/29 12:21:56;;;;;;;40.85;37.53;;;5.40;1.00;;;;;;5051446;28;20219;-73
2020/12/29 12:24:22;;;;;;;43.80;40.47;;;5.30;1.00;;;;;;5052576;28;20193;-74
2020/12/29 12:26:50;;;;;;;48.83;45.00;;;5.40;1.00;;;;;;5051781;28;20635;-74
2020/12/29 12:29:16;;;;;;;53.42;49.45;;;5.40;1.00;;;;;;5052376;28;20182;-74
2020/12/29 12:31:43;;;;;;;43.63;40.00;;;5.40;1.00;;;;;;5052344;28;20182;-74
2020/12/29 12:34:08;;;;;;;49.63;46.13;;;5.30;1.00;;;;;;5050897;28;20208;-74
2020/12/29 12:36:37;;;;;;;52.38;48.80;;;5.30;1.00;;;;;;5050218;28;20252;-75
2020/12/29 12:39:03;;;;;;;43.78;40.40;;;5.20;1.00;;;;;;5052662;28;20541;-74
2020/12/29 12:41:29;;;;;;;46.50;43.33;;;5.20;1.00;;;;;;5050634;28;20272;-75
2020/12/29 12:43:54;;;;;;;50.40;46.90;;;5.30;1.00;;;;;;5051949;28;20516;-75
2020/12/29 12:46:20;;;;;;;50.97;47.07;;;5.20;1.00;;;;;;5051839;28;20236;-74
2020/12/29 12:48:46;;;;;;;50.30;46.90;;;5.30;1.00;;;;;;5050778;28;20416;-75
2020/12/29 12:51:13;;;;;;;39.37;36.23;;;5.30;1.00;;;;;;5052013;28;20174;-74
2020/12/29 12:53:41;;;;;;;41.38;37.88;;;5.40;1.00;;;;;;5051532;28;20486;-75